Huvudsida
METAR-TAF:

METAR-TAF

Flygplatser :

Beirut Air Base

Beirut, Libanon

latitud: 33-49N, longitud: 035-29E, höjd: 29 m

Aktuellt väderrapport

Denna rapport gjordes för 1 timme och 9 minuter sedan, klockan 07:00 UTC
Vind 7 kt från nord/nordväst
Temperatur 25°C
Fuktighet 69%
Tryck 1012 hPa
Sikt: 5000 m
Få moln på en höjd av 2600 ft
fuktdis

METAR: OLBA 270700Z 33007KT 5000 BR FEW026 25/19 Q1012 NOSIG

Tid: 11:09 (08:09 UTC)

Väderprognos

Denna rapport gjordes för 10 timmar och 9 minuter sedan, klockan 22:00 UTC
Prognos gäller från 27 kl. 00 UTC till 28 kl. 06 UTC
Vind 8 kt från nord/nordväst
Sikt 10 km eller mer
Få moln på en höjd av 3000 ft
Blir
från 27 kl. 09 UTC till 27 kl. 12 UTC
Vind 8 kt från nord/nordväst
Sikt: 8000 m
Spridda moln på en höjd av 2600 ft
Blir
från 27 kl. 15 UTC till 27 kl. 18 UTC
Vind 10 kt från nord
Sikt 10 km eller mer
Få moln på en höjd av 2600 ft

TAF: OLBA 262200Z 2700/2806 33008KT 9999 FEW030 BECMG 2709/2712 34008KT 8000 SCT026 BECMG 2715/2718 35010KT 9999 FEW026

Aktuella väderrapporter och prognoser från 4000 flygplatser (METAR- och TAF-rapporter).

De tillgängliga stationerna syns som gula och röda prickar på kartan.

För musen över prickarna för att se namnen på stationerna.

Klicka sedan för att få väderrapporter och prognoser.

För att ändra kartan: Klicka på de gröna knapparna med ett svart kors på för att zooma in; den gröna knappen med ett streck på för att zooma ut; eller på de gröna pilarna för angränsande kartor.


METAR-TAF: